Hauptseite
METAR-TAF:

METAR-TAF

Flughäfen :

Kapstadt, Südafrika

Flughafen Kapstadt

Breite: 33-59S, Länge: 018-36E, Höhe: 42 m

Beobachtung

Neuester Wetterbericht von vor 49 Minuten, um 23:00 UTC
Wind 6 kt aus Süd/Südost
Temperatur 8°C
Luftfeuchtigkeit 81%
Luftdruck 1026 hPa
Sichtweite 10 km oder mehr
Leicht bewölkt in der Höhe von 3000 ft

METAR: FACT 162300Z 15006KT 9999 FEW030 08/05 Q1026 NOSIG

Zeit: 01:49 (23:49 UTC)

Prognose

Neuester Wetterbericht von vor 1 Stunde und 49 Minuten, um 22:00 UTC
Gültige Prognose vom 17 um 00 UTC bis 18 um 06 UTC
Wind 5 kt aus Süd/Südost
Sichtweite 10 km oder mehr
Aufgelockert bewölkt in der Höhe von 3500 ft

TAF: FACT 162200Z 1700/1806 15005KT 9999 SCT035 TX16/1712Z TN05/1805Z

Wetterbeobachtungen und Prognosen von mehr als 4000 Flughäfen (METAR und TAF Bericht).

Die verfügbaren Stationen werden durch gelbe und rote Markierungen auf der Karte dargestellt.

Führen Sie die Maus auf sie, um den Namen der Station zu sehen.

Darauf klicken, um die Beobachtung von Wetterbeobachtungen und Prognosen zu sehen.

Um die Karte zu ändern : klicken Sie auf den grünen Tasten mit einem schwarzen Kreuz Zum Vergrößern, auf den grünen Button mit einem Gedankenstrich zu verkleinern, oder auf die grünen Pfeile für benachbarte Karten.


METAR-TAF: